createdAt,value
2023-05-17T00:00:35.535Z,90.64
2023-05-17T00:03:09.006Z,90.69
2023-05-17T00:05:42.205Z,91.12
2023-05-17T00:08:16.879Z,90.65
2023-05-17T00:10:47.434Z,91.16
2023-05-17T00:13:23.108Z,90.99
2023-05-17T00:15:56.464Z,91.55
2023-05-17T00:18:26.844Z,91.59
2023-05-17T00:20:59.646Z,91.50
2023-05-17T00:23:32.462Z,91.66
2023-05-17T00:26:02.760Z,92.39
2023-05-17T00:28:36.346Z,91.74
2023-05-17T00:31:09.390Z,92.18
2023-05-17T00:33:41.864Z,94.26
2023-05-17T00:36:14.861Z,92.49
2023-05-17T00:38:50.185Z,90.29
2023-05-17T00:41:20.768Z,87.97
2023-05-17T00:43:51.095Z,87.11
2023-05-17T00:46:24.467Z,87.70
2023-05-17T00:48:58.064Z,87.24
2023-05-17T00:51:30.211Z,87.21
2023-05-17T00:54:03.733Z,87.93
2023-05-17T00:56:37.515Z,88.27
2023-05-17T00:59:09.714Z,88.11
2023-05-17T01:01:41.073Z,88.13
2023-05-17T01:04:12.165Z,88.64
2023-05-17T01:06:43.176Z,88.65
2023-05-17T01:09:17.434Z,89.12
2023-05-17T01:11:57.870Z,89.35
2023-05-17T01:14:44.992Z,90.26
2023-05-17T01:17:20.714Z,89.67
2023-05-17T01:20:01.015Z,89.88
2023-05-17T01:22:46.364Z,90.25
2023-05-17T01:25:38.109Z,90.16
2023-05-17T01:28:15.267Z,90.53
2023-05-17T01:30:50.580Z,90.43
2023-05-17T01:33:25.413Z,91.56
2023-05-17T01:35:55.948Z,91.42
2023-05-17T01:38:26.250Z,91.11
2023-05-17T01:41:02.314Z,91.57
2023-05-17T01:43:47.062Z,91.14
2023-05-17T01:46:26.904Z,91.15
2023-05-17T01:49:07.250Z,92.08
2023-05-17T01:51:54.833Z,92.04
2023-05-17T01:54:31.749Z,91.86
2023-05-17T01:57:09.856Z,91.72
2023-05-17T01:59:45.017Z,92.12
2023-05-17T02:02:17.627Z,92.01
2023-05-17T02:04:48.488Z,92.75
2023-05-17T02:07:20.947Z,92.51
2023-05-17T02:09:52.442Z,92.58
2023-05-17T02:12:22.757Z,92.76
2023-05-17T02:14:56.245Z,93.10
2023-05-17T02:17:26.610Z,93.06
2023-05-17T02:19:56.667Z,93.76
2023-05-17T02:22:27.324Z,93.79
2023-05-17T02:24:58.701Z,93.73
2023-05-17T02:27:29.644Z,93.49
2023-05-17T02:30:02.680Z,94.19
2023-05-17T02:32:33.491Z,93.91
2023-05-17T02:35:05.705Z,93.84
2023-05-17T02:37:38.732Z,93.59
2023-05-17T02:40:16.088Z,93.93
2023-05-17T02:42:46.580Z,93.98
2023-05-17T02:45:19.362Z,94.32
2023-05-17T02:47:52.059Z,94.42
2023-05-17T02:50:22.364Z,94.15
2023-05-17T02:52:54.933Z,94.12
2023-05-17T02:55:25.284Z,94.48
2023-05-17T02:57:55.923Z,94.22
2023-05-17T03:00:32.227Z,94.24
2023-05-17T03:03:02.851Z,94.22
2023-05-17T03:05:35.982Z,93.78
2023-05-17T03:08:06.241Z,93.77
2023-05-17T03:10:36.690Z,94.03
2023-05-17T03:13:07.601Z,94.22
2023-05-17T03:15:43.404Z,94.50
2023-05-17T03:18:16.210Z,94.60
2023-05-17T03:20:49.262Z,94.61
2023-05-17T03:23:19.539Z,94.62
2023-05-17T03:25:51.219Z,94.71
2023-05-17T03:28:22.058Z,95.05
2023-05-17T03:30:55.122Z,94.97
2023-05-17T03:33:28.298Z,94.46
2023-05-17T03:36:01.527Z,94.42
2023-05-17T03:38:34.461Z,94.32
2023-05-17T03:41:07.285Z,94.67
2023-05-17T03:43:41.915Z,94.43
2023-05-17T03:46:21.833Z,94.06
2023-05-17T03:48:52.373Z,93.94
2023-05-17T03:51:25.896Z,93.88
2023-05-17T03:54:04.776Z,93.10
2023-05-17T03:56:35.336Z,92.84
2023-05-17T03:59:05.863Z,93.15
2023-05-17T04:01:40.960Z,92.92
2023-05-17T04:04:13.476Z,92.69
2023-05-17T04:06:44.076Z,92.77
2023-05-17T04:09:18.240Z,92.71
2023-05-17T04:11:49.576Z,92.66
2023-05-17T04:14:22.642Z,92.45
2023-05-17T04:16:55.597Z,92.60
2023-05-17T04:19:29.057Z,92.03
2023-05-17T04:22:02.632Z,91.76
2023-05-17T04:24:33.046Z,92.13
2023-05-17T04:27:07.188Z,92.11
2023-05-17T04:29:37.392Z,92.11
2023-05-17T04:32:11.278Z,91.22
2023-05-17T04:34:41.688Z,91.38
2023-05-17T04:37:12.891Z,91.21
2023-05-17T04:39:43.206Z,91.03
2023-05-17T04:42:13.511Z,90.63
2023-05-17T04:44:43.875Z,90.14
2023-05-17T04:47:17.084Z,90.38
2023-05-17T04:49:47.628Z,90.39
2023-05-17T04:52:18.116Z,89.99
2023-05-17T04:54:51.474Z,89.85
2023-05-17T04:57:21.778Z,89.75
2023-05-17T04:59:51.781Z,89.12
2023-05-17T05:02:27.881Z,89.20
2023-05-17T05:05:02.035Z,88.60
2023-05-17T05:07:35.746Z,88.62
2023-05-17T05:10:06.423Z,88.21
2023-05-17T05:12:37.845Z,88.16
2023-05-17T05:15:13.446Z,88.10
2023-05-17T05:17:46.394Z,87.82
2023-05-17T05:20:20.053Z,87.16
2023-05-17T05:22:50.771Z,86.90
2023-05-17T05:25:21.269Z,87.09
2023-05-17T05:27:51.529Z,86.48
2023-05-17T05:30:22.678Z,86.74
2023-05-17T05:32:56.303Z,86.31
2023-05-17T05:35:30.676Z,86.34
2023-05-17T05:38:01.532Z,85.66
2023-05-17T05:40:32.370Z,86.46
2023-05-17T05:43:02.961Z,86.48
2023-05-17T05:45:33.311Z,86.30
2023-05-17T05:48:09.124Z,86.48
2023-05-17T05:50:39.528Z,86.43
2023-05-17T05:53:18.153Z,86.44
2023-05-17T05:55:49.658Z,88.30
2023-05-17T05:58:22.210Z,89.01
2023-05-17T06:00:55.197Z,88.92
2023-05-17T06:03:29.105Z,89.44
2023-05-17T06:06:02.333Z,88.82
2023-05-17T06:08:32.615Z,88.90
2023-05-17T06:11:03.194Z,89.08
2023-05-17T06:13:38.909Z,88.57
2023-05-17T06:16:09.693Z,88.39
2023-05-17T06:18:43.099Z,88.23
2023-05-17T06:21:13.868Z,87.64
2023-05-17T06:23:44.449Z,87.76
2023-05-17T06:26:16.955Z,87.26
2023-05-17T06:28:57.387Z,87.13
2023-05-17T06:31:30.384Z,86.32
2023-05-17T06:34:03.583Z,86.72
2023-05-17T06:36:42.044Z,86.07
2023-05-17T06:39:15.495Z,85.50
2023-05-17T06:41:48.134Z,86.22
2023-05-17T06:44:18.519Z,86.53
2023-05-17T06:46:48.450Z,86.55
2023-05-17T06:49:21.711Z,85.86
2023-05-17T06:51:54.920Z,86.89
2023-05-17T06:54:25.266Z,86.78
2023-05-17T06:56:57.593Z,87.84
2023-05-17T06:59:35.036Z,87.68
2023-05-17T07:02:05.537Z,88.70
2023-05-17T07:04:43.344Z,88.90
2023-05-17T07:07:16.677Z,87.97
2023-05-17T07:09:49.263Z,87.97
2023-05-17T07:12:19.659Z,87.76
2023-05-17T07:14:50.546Z,87.25
2023-05-17T07:17:23.454Z,87.17
2023-05-17T07:19:56.450Z,86.65
2023-05-17T07:22:26.897Z,86.72
2023-05-17T07:24:57.273Z,86.99
2023-05-17T07:27:30.821Z,87.60
2023-05-17T07:30:04.384Z,87.59
2023-05-17T07:32:36.714Z,87.12
2023-05-17T07:35:10.527Z,87.03
2023-05-17T07:37:40.827Z,86.73
2023-05-17T07:40:15.787Z,86.17
2023-05-17T07:42:46.175Z,85.74
2023-05-17T07:45:16.998Z,85.32
2023-05-17T07:47:49.659Z,85.40
2023-05-17T07:50:24.966Z,83.89
2023-05-17T07:52:57.335Z,82.17
2023-05-17T07:55:30.820Z,81.99
2023-05-17T07:58:03.431Z,81.42
2023-05-17T08:00:35.642Z,81.10
2023-05-17T08:03:06.002Z,80.16
2023-05-17T08:05:39.411Z,79.23
2023-05-17T08:08:12.842Z,78.51
2023-05-17T08:10:43.663Z,77.82
2023-05-17T08:13:13.954Z,76.00
2023-05-17T08:15:43.965Z,76.66
2023-05-17T08:18:14.454Z,76.64
2023-05-17T08:20:50.102Z,76.10
2023-05-17T08:23:20.429Z,74.77
2023-05-17T08:25:52.722Z,76.01
2023-05-17T08:28:23.070Z,77.15
2023-05-17T08:30:53.461Z,77.27
2023-05-17T08:33:26.327Z,77.42
2023-05-17T08:36:01.560Z,77.53
2023-05-17T08:38:34.648Z,77.09
2023-05-17T08:41:05.123Z,77.55
2023-05-17T08:43:35.509Z,77.42
2023-05-17T08:46:05.553Z,75.93
2023-05-17T08:48:42.324Z,75.96
2023-05-17T08:51:17.548Z,76.53
2023-05-17T08:53:51.090Z,76.70
2023-05-17T08:56:28.574Z,75.80
2023-05-17T08:59:01.845Z,75.16
2023-05-17T09:01:33.562Z,75.08
2023-05-17T09:04:06.428Z,74.42
2023-05-17T09:06:43.865Z,74.76
2023-05-17T09:09:16.096Z,75.93
2023-05-17T09:11:53.409Z,75.22
2023-05-17T09:14:23.734Z,74.65
2023-05-17T09:17:00.280Z,73.35
2023-05-17T09:19:31.121Z,73.77
2023-05-17T09:22:10.403Z,73.25
2023-05-17T09:24:41.192Z,73.22
2023-05-17T09:27:11.753Z,73.22
2023-05-17T09:29:42.655Z,72.95
2023-05-17T09:32:17.102Z,74.00
2023-05-17T09:34:50.355Z,74.58
2023-05-17T09:37:31.210Z,75.33
2023-05-17T09:40:04.378Z,75.93
2023-05-17T09:42:39.435Z,76.58
2023-05-17T09:45:14.799Z,77.06
2023-05-17T09:47:45.821Z,78.11
2023-05-17T09:50:26.140Z,78.46
2023-05-17T09:52:59.221Z,78.28
2023-05-17T09:55:32.915Z,77.85
2023-05-17T09:58:12.205Z,76.70
2023-05-17T10:00:43.495Z,74.40
2023-05-17T10:03:15.198Z,73.38
2023-05-17T10:05:49.740Z,72.19
2023-05-17T10:08:26.191Z,72.08
2023-05-17T10:10:58.638Z,71.40
2023-05-17T10:13:33.356Z,72.59
2023-05-17T10:16:08.374Z,73.73
2023-05-17T10:18:45.657Z,71.93
2023-05-17T10:21:17.628Z,72.67
2023-05-17T10:23:51.247Z,73.24
2023-05-17T10:26:23.900Z,71.58
2023-05-17T10:28:56.647Z,72.02
2023-05-17T10:31:27.726Z,72.56
2023-05-17T10:33:58.912Z,70.86
2023-05-17T10:36:30.068Z,70.47
2023-05-17T10:39:03.824Z,69.38
2023-05-17T10:41:36.877Z,68.83
2023-05-17T10:44:12.909Z,68.69
2023-05-17T10:46:43.676Z,67.04
2023-05-17T10:49:14.567Z,64.85
2023-05-17T10:51:45.638Z,62.28
2023-05-17T10:54:20.978Z,59.05
2023-05-17T10:56:53.257Z,59.51
2023-05-17T10:59:29.823Z,59.43
2023-05-17T11:02:11.493Z,58.66
2023-05-17T11:04:45.247Z,58.51
2023-05-17T11:07:32.393Z,57.26
2023-05-17T11:10:23.550Z,57.91
2023-05-17T11:12:57.994Z,58.72
2023-05-17T11:15:29.400Z,59.55
2023-05-17T11:18:02.349Z,59.04
2023-05-17T11:20:38.214Z,61.28
2023-05-17T11:23:11.835Z,61.94
2023-05-17T11:25:49.674Z,63.19
2023-05-17T11:28:22.540Z,63.29
2023-05-17T11:30:57.117Z,63.19
2023-05-17T11:33:41.626Z,61.81
2023-05-17T11:36:21.722Z,61.16
2023-05-17T11:39:01.440Z,58.05
2023-05-17T11:41:41.945Z,56.42
2023-05-17T11:44:16.553Z,57.62
2023-05-17T11:46:47.808Z,57.68
2023-05-17T11:49:34.303Z,57.94
2023-05-17T11:52:08.699Z,56.54
2023-05-17T11:54:43.173Z,57.14
2023-05-17T11:57:20.624Z,56.68
2023-05-17T11:59:53.795Z,57.34
2023-05-17T12:02:36.732Z,57.34
2023-05-17T12:05:12.692Z,55.89
2023-05-17T12:07:43.063Z,56.56
2023-05-17T12:10:16.738Z,56.19
2023-05-17T12:12:52.423Z,57.86
2023-05-17T12:15:23.445Z,58.12
2023-05-17T12:17:56.721Z,58.63
2023-05-17T12:20:29.752Z,57.72
2023-05-17T12:23:00.521Z,58.14
2023-05-17T12:25:31.046Z,57.72
2023-05-17T12:28:22.997Z,57.19
2023-05-17T12:31:04.421Z,57.59
2023-05-17T12:33:41.537Z,58.21
2023-05-17T12:36:13.372Z,58.04
2023-05-17T12:38:47.781Z,56.76
2023-05-17T12:41:26.598Z,55.76
2023-05-17T12:44:14.562Z,55.45
2023-05-17T12:46:50.745Z,53.83
2023-05-17T12:49:24.603Z,54.69
2023-05-17T12:51:55.025Z,55.55
2023-05-17T12:54:32.704Z,55.38
2023-05-17T12:57:14.233Z,54.67
2023-05-17T12:59:55.731Z,54.26
2023-05-17T13:02:26.627Z,52.12
2023-05-17T13:04:57.058Z,51.98
2023-05-17T13:07:27.569Z,52.98
2023-05-17T13:09:57.867Z,52.79
2023-05-17T13:12:30.451Z,53.37
2023-05-17T13:15:03.389Z,55.04
2023-05-17T13:17:45.539Z,53.52
2023-05-17T13:20:19.176Z,55.23
2023-05-17T13:22:58.624Z,55.32
2023-05-17T13:25:28.935Z,53.66
2023-05-17T13:27:59.270Z,52.74
2023-05-17T13:30:33.362Z,51.77
2023-05-17T13:33:06.328Z,51.77
2023-05-17T13:35:37.804Z,51.79
2023-05-17T13:38:10.858Z,51.85
2023-05-17T13:40:41.653Z,51.59
2023-05-17T13:43:12.300Z,50.82
2023-05-17T13:45:45.602Z,48.62
2023-05-17T13:48:16.301Z,48.49
2023-05-17T13:50:48.842Z,49.16
2023-05-17T13:53:25.480Z,48.07
2023-05-17T13:56:02.458Z,49.10
2023-05-17T13:58:35.420Z,48.96
2023-05-17T14:01:08.595Z,47.40
2023-05-17T14:03:41.788Z,48.83
2023-05-17T14:06:12.152Z,48.55
2023-05-17T14:08:42.491Z,48.49
2023-05-17T14:11:12.790Z,47.87
2023-05-17T14:13:43.488Z,49.39
2023-05-17T14:16:17.817Z,48.09
2023-05-17T14:18:50.672Z,48.47
2023-05-17T14:21:21.726Z,49.20
2023-05-17T14:23:54.050Z,47.44
2023-05-17T14:26:24.575Z,48.09
2023-05-17T14:28:55.054Z,48.29
2023-05-17T14:31:29.494Z,49.59
2023-05-17T14:34:04.183Z,50.24
2023-05-17T14:36:36.693Z,51.03
2023-05-17T14:39:07.894Z,51.66
2023-05-17T14:41:42.847Z,52.33
2023-05-17T14:46:47.824Z,51.85
2023-05-17T14:49:18.535Z,51.48
2023-05-17T14:51:51.081Z,51.76
2023-05-17T14:54:31.291Z,52.15
2023-05-17T14:57:01.806Z,52.68
2023-05-17T14:59:32.702Z,52.79
2023-05-17T15:02:06.007Z,53.59
2023-05-17T15:04:38.611Z,52.33
2023-05-17T15:07:11.690Z,52.19
2023-05-17T15:09:44.541Z,52.09
2023-05-17T15:12:25.384Z,53.13
2023-05-17T15:14:55.927Z,53.83
2023-05-17T15:17:31.044Z,55.05
2023-05-17T15:20:05.037Z,55.35
2023-05-17T15:22:37.867Z,55.19
2023-05-17T15:25:08.988Z,55.18
2023-05-17T15:27:43.065Z,55.26
2023-05-17T15:30:14.559Z,55.62
2023-05-17T15:32:47.767Z,55.84
2023-05-17T15:35:18.323Z,55.41
2023-05-17T15:37:49.313Z,55.41
2023-05-17T15:40:22.261Z,54.70
2023-05-17T15:42:59.233Z,55.14
2023-05-17T15:45:37.018Z,54.98
2023-05-17T15:48:12.635Z,55.40
2023-05-17T15:50:45.646Z,55.67
2023-05-17T15:53:16.208Z,55.83
2023-05-17T15:55:50.950Z,56.06
2023-05-17T15:58:21.482Z,55.83
2023-05-17T16:00:51.931Z,57.23
2023-05-17T16:03:27.229Z,57.00
2023-05-17T16:05:57.630Z,57.38
2023-05-17T16:08:33.573Z,57.87
2023-05-17T16:11:06.147Z,58.21
2023-05-17T16:13:36.513Z,58.46
2023-05-17T16:16:07.515Z,58.27
2023-05-17T16:18:40.495Z,59.04
2023-05-17T16:21:15.631Z,60.25
2023-05-17T16:23:49.388Z,60.50
2023-05-17T16:26:21.474Z,60.82
2023-05-17T16:28:52.284Z,62.51
2023-05-17T16:31:23.113Z,63.18
2023-05-17T16:34:00.579Z,65.14
2023-05-17T16:36:33.598Z,66.48
2023-05-17T16:39:05.374Z,68.45
2023-05-17T16:41:39.947Z,69.83
2023-05-17T16:44:13.977Z,70.09
2023-05-17T16:46:47.537Z,69.74
2023-05-17T16:49:20.694Z,70.81
2023-05-17T16:51:53.873Z,70.86
2023-05-17T16:54:24.800Z,71.76
2023-05-17T16:56:55.156Z,71.83
2023-05-17T16:59:27.471Z,71.46
2023-05-17T17:01:58.610Z,72.06
2023-05-17T17:04:35.080Z,71.02
2023-05-17T17:07:05.573Z,73.39
2023-05-17T17:09:35.913Z,72.89
2023-05-17T17:12:20.071Z,73.79
2023-05-17T17:14:54.349Z,74.22
2023-05-17T17:17:24.811Z,74.70
2023-05-17T17:20:01.115Z,74.44
2023-05-17T17:22:34.618Z,74.65
2023-05-17T17:25:11.868Z,73.91
2023-05-17T17:27:47.251Z,74.06
2023-05-17T17:30:20.092Z,74.27
2023-05-17T17:32:50.870Z,74.55
2023-05-17T17:35:24.421Z,75.24
2023-05-17T17:37:58.412Z,74.61
2023-05-17T17:40:29.270Z,74.52
2023-05-17T17:43:00.181Z,74.66
2023-05-17T17:45:30.952Z,74.24
2023-05-17T17:48:02.088Z,74.17
2023-05-17T17:50:36.239Z,73.38
2023-05-17T17:53:07.207Z,73.61
2023-05-17T17:55:41.742Z,73.41
2023-05-17T17:58:12.496Z,72.56
2023-05-17T18:00:42.918Z,71.92
2023-05-17T18:03:13.854Z,72.48
2023-05-17T18:05:49.928Z,72.67
2023-05-17T18:08:20.817Z,71.04
2023-05-17T18:10:53.852Z,71.43
2023-05-17T18:13:27.975Z,71.97
2023-05-17T18:15:59.068Z,71.94
2023-05-17T18:18:29.799Z,72.90
2023-05-17T18:21:04.358Z,71.41
2023-05-17T18:23:36.220Z,70.98
2023-05-17T18:26:07.038Z,70.88
2023-05-17T18:28:42.707Z,70.38
2023-05-17T18:31:18.930Z,70.07
2023-05-17T18:33:54.281Z,70.16
2023-05-17T18:36:34.174Z,69.87
2023-05-17T18:39:12.406Z,69.80
2023-05-17T18:41:46.939Z,70.03
2023-05-17T18:44:19.886Z,69.99
2023-05-17T18:46:51.507Z,69.69
2023-05-17T18:49:31.921Z,69.92
2023-05-17T18:52:05.611Z,70.32
2023-05-17T18:54:43.827Z,69.12
2023-05-17T18:57:18.988Z,69.72
2023-05-17T18:59:52.031Z,69.54
2023-05-17T19:02:22.886Z,69.51
2023-05-17T19:04:54.841Z,70.43
2023-05-17T19:07:33.315Z,71.32
2023-05-17T19:10:04.640Z,71.44
2023-05-17T19:12:37.438Z,71.31
2023-05-17T19:15:10.536Z,68.93
2023-05-17T19:17:41.375Z,68.74
2023-05-17T19:20:19.670Z,70.44
2023-05-17T19:22:55.328Z,70.75
2023-05-17T19:25:27.125Z,71.16
2023-05-17T19:27:58.118Z,72.14
2023-05-17T19:30:33.153Z,72.52
2023-05-17T19:33:08.256Z,71.54
2023-05-17T19:35:40.569Z,70.44
2023-05-17T19:38:15.627Z,70.11
2023-05-17T19:40:49.627Z,68.92
2023-05-17T19:43:39.208Z,68.08
2023-05-17T19:46:12.608Z,66.86
2023-05-17T19:48:47.035Z,66.32
2023-05-17T19:51:23.767Z,66.18
2023-05-17T19:53:58.001Z,65.27
2023-05-17T19:56:39.116Z,65.04
2023-05-17T19:59:16.129Z,63.77
2023-05-17T20:01:47.379Z,63.94
2023-05-17T20:04:24.079Z,63.52
2023-05-17T20:06:57.441Z,62.74
2023-05-17T20:09:33.357Z,62.32
2023-05-17T20:12:03.880Z,62.88
2023-05-17T20:14:38.444Z,61.51
2023-05-17T20:17:10.413Z,61.24
2023-05-17T20:19:41.434Z,61.91
2023-05-17T20:22:12.210Z,62.34
2023-05-17T20:24:45.529Z,62.47
2023-05-17T20:27:18.646Z,62.72
2023-05-17T20:29:49.006Z,62.33
2023-05-17T20:32:20.360Z,62.94
2023-05-17T20:34:52.924Z,63.37
2023-05-17T20:37:24.386Z,63.55
2023-05-17T20:39:59.510Z,64.00
2023-05-17T20:42:32.861Z,65.14
2023-05-17T20:45:04.069Z,66.17
2023-05-17T20:47:34.662Z,66.90
2023-05-17T20:50:04.690Z,65.57
2023-05-17T20:52:39.466Z,66.16
2023-05-17T20:55:14.324Z,65.61
2023-05-17T20:57:44.946Z,64.64
2023-05-17T21:00:18.292Z,65.25
2023-05-17T21:02:48.716Z,64.89
2023-05-17T21:05:22.164Z,65.69
2023-05-17T21:07:52.561Z,65.21
2023-05-17T21:10:32.168Z,66.33
2023-05-17T21:13:05.172Z,67.56
2023-05-17T21:15:36.794Z,67.82
2023-05-17T21:18:10.560Z,68.62
2023-05-17T21:20:43.973Z,68.59
2023-05-17T21:23:20.642Z,69.07
2023-05-17T21:25:53.847Z,69.72
2023-05-17T21:28:25.194Z,70.18
2023-05-17T21:30:57.071Z,70.07
2023-05-17T21:33:27.425Z,69.36
2023-05-17T21:35:58.069Z,67.45
2023-05-17T21:38:28.519Z,67.92
2023-05-17T21:41:01.114Z,66.76
2023-05-17T21:43:31.444Z,66.21
2023-05-17T21:46:04.786Z,66.27
2023-05-17T21:48:35.049Z,69.15
2023-05-17T21:51:09.601Z,69.78
2023-05-17T21:53:40.123Z,69.60
2023-05-17T21:56:13.433Z,69.77
2023-05-17T21:58:43.850Z,70.27
2023-05-17T22:01:14.147Z,70.22
2023-05-17T22:03:45.343Z,69.13
2023-05-17T22:06:22.989Z,68.89
2023-05-17T22:08:56.535Z,67.92
2023-05-17T22:11:32.757Z,66.74
2023-05-17T22:14:06.668Z,65.82
2023-05-17T22:16:37.182Z,64.23
2023-05-17T22:19:07.908Z,64.08
2023-05-17T22:21:40.395Z,63.76
2023-05-17T22:24:13.862Z,63.05
2023-05-17T22:26:49.817Z,61.98
2023-05-17T22:29:20.092Z,61.94
2023-05-17T22:31:55.295Z,61.54
2023-05-17T22:34:25.709Z,61.42
2023-05-17T22:36:55.719Z,61.67
2023-05-17T22:39:26.024Z,61.07
2023-05-17T22:41:58.994Z,61.12
2023-05-17T22:44:29.307Z,60.81
2023-05-17T22:47:02.987Z,60.13
2023-05-17T22:49:34.425Z,60.12
2023-05-17T22:52:09.586Z,60.01
2023-05-17T22:54:48.869Z,60.15
2023-05-17T22:57:21.887Z,60.13
2023-05-17T22:59:52.471Z,60.20
2023-05-17T23:02:22.755Z,60.48
2023-05-17T23:04:53.049Z,60.41
2023-05-17T23:07:26.015Z,59.78
2023-05-17T23:09:58.745Z,60.11
2023-05-17T23:12:32.605Z,59.65
2023-05-17T23:15:03.537Z,60.23
2023-05-17T23:17:37.839Z,60.52
2023-05-17T23:20:12.345Z,59.74
2023-05-17T23:22:45.834Z,59.72
2023-05-17T23:25:19.571Z,59.64
2023-05-17T23:27:53.516Z,59.59
2023-05-17T23:30:24.356Z,59.45
2023-05-17T23:32:55.467Z,59.44
2023-05-17T23:35:26.729Z,59.52
2023-05-17T23:37:57.063Z,59.35
2023-05-17T23:40:27.310Z,58.28
2023-05-17T23:43:01.684Z,58.83
2023-05-17T23:45:32.556Z,59.10
2023-05-17T23:48:05.167Z,58.62
2023-05-17T23:50:36.654Z,58.99
2023-05-17T23:53:10.033Z,58.59
2023-05-17T23:55:43.564Z,58.94
2023-05-17T23:58:23.577Z,58.17
